createdAt,value
2023-01-13T00:01:22.767Z,97498.75
2023-01-13T00:06:40.847Z,97496.44
2023-01-13T00:12:08.763Z,97483.34
2023-01-13T00:17:32.811Z,97485.69
2023-01-13T00:22:57.777Z,97492.41
2023-01-13T00:28:31.786Z,97484.03
2023-01-13T00:33:58.764Z,97483.16
2023-01-13T00:39:22.800Z,97469.41
2023-01-13T00:44:50.800Z,97472.09
2023-01-13T00:50:15.797Z,97467.69
2023-01-13T00:55:40.783Z,97457.09
2023-01-13T01:01:07.920Z,97457.94
2023-01-13T01:06:35.770Z,97454.72
2023-01-13T01:11:59.803Z,97453.34
2023-01-13T01:17:27.784Z,97457.56
2023-01-13T01:22:51.817Z,97461.09
2023-01-13T01:28:16.859Z,97452.19
2023-01-13T01:33:43.808Z,97447.69
2023-01-13T01:39:09.798Z,97455.41
2023-01-13T01:45:03.800Z,97444.19
2023-01-13T01:50:32.799Z,97447.06
2023-01-13T01:55:57.907Z,97433.63
2023-01-13T02:01:23.920Z,97445.38
2023-01-13T02:06:50.801Z,97440.50
2023-01-13T02:12:28.830Z,97445.81
2023-01-13T02:18:08.821Z,97440.28
2023-01-13T02:24:15.842Z,97437.53
2023-01-13T02:30:28.944Z,97430.69
2023-01-13T02:35:59.885Z,97432.19
2023-01-13T02:41:42.864Z,97423.09
2023-01-13T02:47:16.860Z,97424.31
2023-01-13T02:52:46.873Z,97424.31
2023-01-13T02:58:14.928Z,97420.94
2023-01-13T03:03:42.844Z,97427.00
2023-01-13T03:09:13.817Z,97412.88
2023-01-13T03:14:45.841Z,97421.09
2023-01-13T03:20:17.852Z,97408.06
2023-01-13T03:25:47.864Z,97401.66
2023-01-13T03:31:18.817Z,97403.50
2023-01-13T03:36:47.857Z,97399.31
2023-01-13T03:42:17.844Z,97405.88
2023-01-13T03:47:47.837Z,97399.66
2023-01-13T03:53:19.903Z,97415.78
2023-01-13T03:58:48.873Z,97418.47
2023-01-13T04:04:10.897Z,97420.34
2023-01-13T04:09:46.873Z,97431.91
2023-01-13T04:15:11.868Z,97419.47
2023-01-13T04:20:36.860Z,97419.84
2023-01-13T04:26:10.914Z,97414.81
2023-01-13T04:31:35.931Z,97414.50
2023-01-13T04:36:59.871Z,97408.84
2023-01-13T04:42:27.889Z,97403.81
2023-01-13T04:47:51.885Z,97407.00
2023-01-13T04:53:18.872Z,97394.13
2023-01-13T04:58:46.915Z,97386.41
2023-01-13T05:04:11.887Z,97376.88
2023-01-13T05:09:36.983Z,97384.41
2023-01-13T05:15:16.874Z,97387.94
2023-01-13T05:20:41.917Z,97396.84
2023-01-13T05:26:12.914Z,97388.97
2023-01-13T05:31:40.887Z,97385.59
2023-01-13T05:37:04.931Z,97391.97
2023-01-13T05:42:42.915Z,97398.66
2023-01-13T05:48:09.889Z,97385.72
2023-01-13T05:53:35.893Z,97378.34
2023-01-13T05:58:59.898Z,97372.44
2023-01-13T06:04:28.000Z,97383.38
2023-01-13T06:09:51.905Z,97382.38
2023-01-13T06:15:18.945Z,97372.63
2023-01-13T06:20:45.927Z,97386.72
2023-01-13T06:26:17.933Z,97383.19
2023-01-13T06:31:42.002Z,97374.13
2023-01-13T06:37:10.935Z,97371.25
2023-01-13T06:42:47.958Z,97373.31
2023-01-13T06:48:12.936Z,97371.44
2023-01-13T06:53:39.922Z,97387.75
2023-01-13T06:59:04.950Z,97389.75
2023-01-13T07:04:28.957Z,97397.81
2023-01-13T07:09:56.933Z,97426.19
2023-01-13T07:15:28.966Z,97508.91
2023-01-13T07:20:53.969Z,97569.28
2023-01-13T07:26:21.995Z,97563.16
2023-01-13T07:31:49.778Z,97550.94
2023-01-13T07:37:13.965Z,97568.41
2023-01-13T07:42:54.020Z,97537.59
2023-01-13T07:48:18.011Z,97536.63
2023-01-13T07:53:43.959Z,97543.03
2023-01-13T07:59:11.017Z,97548.81
2023-01-13T08:04:35.961Z,97547.47
2023-01-13T08:09:59.991Z,97563.81
2023-01-13T08:15:28.242Z,97581.97
2023-01-13T08:20:51.978Z,97595.34
2023-01-13T08:26:19.033Z,97588.84
2023-01-13T08:31:45.993Z,97591.06
2023-01-13T08:37:10.989Z,97582.56
2023-01-13T08:42:36.002Z,97585.97
2023-01-13T08:48:03.993Z,97573.84
2023-01-13T08:53:27.987Z,97601.25
2023-01-13T08:58:52.990Z,97597.38
2023-01-13T09:04:20.095Z,97572.31
2023-01-13T09:09:46.011Z,97524.31
2023-01-13T09:15:10.323Z,97526.34
2023-01-13T09:20:38.986Z,97546.47
2023-01-13T09:26:03.027Z,97565.47
2023-01-13T09:31:28.109Z,97572.81
2023-01-13T09:36:55.259Z,97582.50
2023-01-13T09:42:41.016Z,97595.59
2023-01-13T09:48:10.030Z,97600.59
2023-01-13T09:53:42.022Z,97596.25
2023-01-13T09:59:06.018Z,97595.59
2023-01-13T10:04:38.042Z,97594.19
2023-01-13T10:10:09.461Z,97578.16
2023-01-13T10:15:36.099Z,97573.50
2023-01-13T10:21:11.057Z,97579.84
2023-01-13T10:26:57.025Z,97584.88
2023-01-13T10:32:22.056Z,97581.06
2023-01-13T10:37:46.090Z,97564.16
2023-01-13T10:43:17.066Z,97556.13
2023-01-13T10:48:50.039Z,97545.16
2023-01-13T10:54:29.046Z,97531.78
2023-01-13T10:59:58.039Z,97557.25
2023-01-13T11:05:32.068Z,97546.69
2023-01-13T11:11:02.051Z,97549.25
2023-01-13T11:16:30.118Z,97541.72
2023-01-13T11:21:59.099Z,97532.41
2023-01-13T11:27:30.095Z,97522.75
2023-01-13T11:33:14.047Z,97513.56
2023-01-13T11:38:43.060Z,97510.47
2023-01-13T11:44:11.075Z,97511.84
2023-01-13T11:49:42.206Z,97490.41
2023-01-13T11:55:32.081Z,97484.41
2023-01-13T12:01:12.108Z,97483.25
2023-01-13T12:06:50.081Z,97488.78
2023-01-13T12:12:29.090Z,97499.53
2023-01-13T12:18:06.099Z,97506.06
2023-01-13T12:23:38.087Z,97500.88
2023-01-13T12:29:07.100Z,97500.00
2023-01-13T12:34:43.167Z,97519.47
2023-01-13T12:40:19.141Z,97526.34
2023-01-13T12:45:44.145Z,97513.75
2023-01-13T12:51:16.679Z,97520.97
2023-01-13T12:56:52.117Z,97545.44
2023-01-13T13:02:44.178Z,97548.81
2023-01-13T13:08:14.097Z,97547.47
2023-01-13T13:14:00.159Z,97564.56
2023-01-13T13:19:53.132Z,97568.59
2023-01-13T13:25:37.139Z,97580.28
2023-01-13T13:31:25.113Z,97576.47
2023-01-13T13:37:06.134Z,97579.34
2023-01-13T13:42:47.105Z,97583.69
2023-01-13T13:48:14.111Z,97595.78
2023-01-13T13:53:43.125Z,97589.38
2023-01-13T13:59:08.130Z,97619.75
2023-01-13T14:04:37.267Z,97621.88
2023-01-13T14:10:04.104Z,97624.56
2023-01-13T14:15:47.127Z,97622.50
2023-01-13T14:21:16.099Z,97612.47
2023-01-13T14:26:48.098Z,97622.56
2023-01-13T14:32:14.118Z,97615.88
2023-01-13T14:37:46.105Z,97612.19
2023-01-13T14:43:13.115Z,97593.06
2023-01-13T14:48:42.090Z,97614.72
2023-01-13T14:54:10.099Z,97613.16
2023-01-13T14:59:52.117Z,97619.81
2023-01-13T15:05:43.089Z,97617.56
2023-01-13T15:11:12.085Z,97619.84
2023-01-13T15:16:39.092Z,97631.91
2023-01-13T15:22:03.117Z,97616.25
2023-01-13T15:27:42.116Z,97638.78
2023-01-13T15:33:09.084Z,97643.16
2023-01-13T15:38:35.091Z,97636.53
2023-01-13T15:44:15.131Z,97654.44
2023-01-13T15:49:44.099Z,97656.78
2023-01-13T15:55:09.105Z,97669.69
2023-01-13T16:00:37.173Z,97677.66
2023-01-13T16:06:02.117Z,97690.19
2023-01-13T16:11:27.200Z,97693.94
2023-01-13T16:16:55.146Z,97709.22
2023-01-13T16:22:19.137Z,97690.34
2023-01-13T16:27:44.170Z,97718.47
2023-01-13T16:33:13.179Z,97721.84
2023-01-13T16:38:38.185Z,97721.53
2023-01-13T16:44:03.200Z,97727.81
2023-01-13T16:49:31.180Z,97733.84
2023-01-13T16:54:55.222Z,97736.81
2023-01-13T17:00:21.263Z,97750.13
2023-01-13T17:05:48.229Z,97755.47
2023-01-13T17:11:13.194Z,97769.84
2023-01-13T17:16:38.342Z,97771.28
2023-01-13T17:22:06.216Z,97783.53
2023-01-13T17:27:30.227Z,97780.84
2023-01-13T17:32:55.256Z,97802.94
2023-01-13T17:38:23.235Z,97809.59
2023-01-13T17:43:48.245Z,97815.25
2023-01-13T17:49:12.245Z,97823.56
2023-01-13T17:54:40.267Z,97822.16
2023-01-13T18:00:06.283Z,97824.81
2023-01-13T18:05:33.122Z,97839.19
2023-01-13T18:11:01.266Z,97842.47
2023-01-13T18:16:30.214Z,97852.75
2023-01-13T18:22:07.254Z,97859.53
2023-01-13T18:27:45.265Z,97878.97
2023-01-13T18:33:10.245Z,97873.31
2023-01-13T18:38:34.305Z,97886.38
2023-01-13T18:44:02.256Z,97878.38
2023-01-13T18:49:26.234Z,97894.69
2023-01-13T18:54:51.276Z,97893.31
2023-01-13T19:00:19.297Z,97891.63
2023-01-13T19:05:45.280Z,97891.03
2023-01-13T19:11:11.268Z,97919.22
2023-01-13T19:16:39.281Z,97931.59
2023-01-13T19:22:03.519Z,97925.38
2023-01-13T19:27:30.242Z,97939.63
2023-01-13T19:32:58.277Z,97947.38
2023-01-13T19:38:23.302Z,97952.13
2023-01-13T19:44:01.279Z,97953.81
2023-01-13T19:49:29.293Z,97944.81
2023-01-13T19:54:53.330Z,97951.69
2023-01-13T20:00:22.297Z,97958.03
2023-01-13T20:05:49.307Z,97963.13
2023-01-13T20:11:27.307Z,97980.28
2023-01-13T20:16:51.404Z,97993.78
2023-01-13T20:22:20.318Z,98029.22
2023-01-13T20:27:51.314Z,98037.38
2023-01-13T20:33:16.321Z,98038.50
2023-01-13T20:38:46.300Z,98034.69
2023-01-13T20:44:12.297Z,98044.13
2023-01-13T20:49:37.331Z,98047.50
2023-01-13T20:55:05.323Z,98044.31
2023-01-13T21:00:30.398Z,98066.09
2023-01-13T21:05:55.303Z,98057.81
2023-01-13T21:11:24.326Z,98078.19
2023-01-13T21:16:49.344Z,98078.47
2023-01-13T21:22:13.318Z,98088.91
2023-01-13T21:27:41.348Z,98102.41
2023-01-13T21:33:07.347Z,98115.91
2023-01-13T21:38:33.324Z,98113.38
2023-01-13T21:44:13.359Z,98135.28
2023-01-13T21:49:38.345Z,98136.41
2023-01-13T21:55:15.370Z,98129.38
2023-01-13T22:00:43.435Z,98121.34
2023-01-13T22:06:11.353Z,98127.69
2023-01-13T22:11:36.338Z,98116.16
2023-01-13T22:17:07.427Z,98132.88
2023-01-13T22:22:33.378Z,98144.25
2023-01-13T22:28:02.346Z,98138.06
2023-01-13T22:33:30.350Z,98140.84
2023-01-13T22:38:55.397Z,98154.09
2023-01-13T22:44:20.393Z,98147.56
2023-01-13T22:49:48.386Z,98154.28
2023-01-13T22:55:31.513Z,98151.06
2023-01-13T23:01:22.570Z,98154.28
2023-01-13T23:06:50.467Z,98151.22
2023-01-13T23:12:14.370Z,98161.03
2023-01-13T23:17:49.247Z,98172.94
2023-01-13T23:23:16.402Z,98171.63
2023-01-13T23:28:42.379Z,98164.75
2023-01-13T23:34:06.411Z,98158.72
2023-01-13T23:39:34.381Z,98171.94
2023-01-13T23:44:58.423Z,98180.28
2023-01-13T23:50:23.400Z,98173.50
2023-01-13T23:55:50.442Z,98180.00
